x

8461490 - New London, Ct (nlnc3) Weather Station

9:30 - Wed 2nd Sep 2015 All times are EDT. -4 hours from GMT.

  • Wind
    6mph, 7mph gusts
  • Sea Temp 73°f
  • Air Temp 75°f
  • Sea Pressure 1015.5mb
  • 8461490 - New London, Ct
  • 8461490 - New London, Ct

More Historic Weather Station data

Upgrade to MSW Pro to gain access to the past 30 days of data for over 8000 Wavebouys and Weather Stations around the globe.

Join Pro

Comparision Forecast

View Surf forecast
   
mer. 09/02 9:30 6 7 mph 1015.5mb 73f 75f
9:24 3 7 mph 1015.5mb 73f 76f
9:18 5 7 mph 1015.5mb 73f 75f
9:12 5 7 mph 1015.5mb 73f 75f
9:06 3 6 mph 1015.5mb 73f 75f
9:00 5 6 mph 1015.5mb 73f 74f
8:54 5 6 mph 1015.6mb 73f 74f
8:48 5 6 mph 1015.6mb 73f 74f
8:42 5 7 mph 1015.6mb 73f 73f
8:36 5 6 mph 1015.7mb 73f 73f
8:30 5 6 mph 1015.7mb 73f 72f
8:24 2 6 mph 1015.7mb 74f 72f
8:18 3 7 mph 1015.7mb 74f 72f
8:12 2 5 mph 1015.7mb 75f 72f
8:06 3 6 mph 1015.7mb 75f 72f
8:00 6 8 mph 1015.7mb 75f 71f
7:54 3 5 mph 1015.7mb 75f 71f
7:48 3 6 mph 1015.7mb 75f 71f
7:42 2 5 mph 1015.8mb 75f 70f
7:36 2 3 mph 1015.8mb 75f 70f
7:30 2 3 mph 1015.8mb 75f 70f
7:24 2 3 mph 1015.8mb 75f 70f
7:18 1 3 mph 1015.8mb 75f 70f
7:12 3 6 mph 1015.8mb 75f 70f
7:06 2 5 mph 1015.7mb 75f 70f
7:00 3 6 mph 1015.7mb 75f 70f
6:54 2 5 mph 1015.7mb 75f 70f
6:48 2 3 mph 1015.6mb 75f 70f
6:42 3 5 mph 1015.5mb 75f 70f
6:36 1 2 mph 1015.4mb 75f 70f
6:30 1 3 mph 1015.4mb 75f 70f
6:24 1 2 mph 1015.4mb 75f 70f
6:18 2
mph
1015.4mb 75f 70f
6:12 2 3 mph 1015.4mb 75f 70f
6:06  -  2 mph 1015.4mb 75f 70f
6:00  -  mph 1015.4mb 75f 69f
5:54  -  1 mph 1015.4mb 75f 69f
5:48  -  mph 1015.4mb 75f 69f
5:42  -  1 mph 1015.4mb 75f 69f
5:36  -  2 mph 1015.4mb 75f 69f
5:30  -  2 mph 1015.3mb 75f 69f
5:24 1 2 mph 1015.3mb 75f 69f
5:18 1 2 mph 1015.3mb 75f 69f
5:12  -  2 mph 1015.3mb 75f 68f
5:06  -  2 mph 1015.3mb 75f 68f
5:00 1 2 mph 1015.4mb 75f 68f
4:54  -  2 mph 1015.5mb 75f 68f
4:48 2
mph
1015.4mb 75f 68f
4:42 2 3 mph 1015.4mb 75f 68f
4:36 2
mph
1015.4mb 75f 68f
4:30 1 3 mph 1015.5mb 75f 68f
4:24 2 3 mph 1015.4mb 75f 68f
4:18 2 3 mph 1015.4mb 75f 68f
4:12 3
mph
1015.5mb 75f 68f
4:06 2 3 mph 1015.5mb 75f 68f
4:00 2 3 mph 1015.5mb 75f 68f
3:54 2 3 mph 1015.6mb 75f 68f
3:48 3
mph
1015.6mb 75f 68f
3:42 2 3 mph 1015.7mb 75f 69f
3:36 2
mph
1015.7mb 75f 69f
3:30 1 2 mph 1015.7mb 75f 69f
3:24 2
mph
1015.7mb 75f 69f
3:18  -  2 mph 1015.8mb 75f 69f
3:12 2 3 mph 1015.8mb 75f 69f
3:06 2
mph
1015.8mb 75f 69f
3:00 1 2 mph 1015.9mb 75f 69f
2:54 1 3 mph 1016mb 75f 69f
2:48 2 3 mph 1016mb 75f 69f
2:42  -  2 mph 1016mb 75f 70f
2:36  -  1 mph 1016mb 75f 70f
2:30 1 2 mph 1016.1mb 75f 70f
2:24 1 2 mph 1016.2mb 75f 70f
2:18  -  2 mph 1016.2mb 74f -
2:12  -  2 mph 1016.3mb 74f -
2:06 2 3 mph 1016.4mb 74f -
2:00 3
mph
1016.4mb 74f 70f
1:54 2 3 mph 1016.5mb 74f 70f
1:48 2
mph
1016.5mb 74f 70f
1:42 2 3 mph 1016.5mb 74f 70f
1:36 3
mph
1016.5mb 74f 70f
1:30 3 5 mph 1016.5mb 74f 70f
1:24 2 3 mph 1016.5mb 74f 71f
1:18 3 5 mph 1016.5mb 75f 71f
1:12 3 5 mph 1016.5mb 75f 71f
1:06 3 5 mph 1016.5mb 75f 71f
1:00 2 3 mph 1016.5mb 75f 71f
12:54 3 5 mph 1016.5mb 75f 71f
12:48 3 5 mph 1016.5mb 75f 71f
12:42 3 5 mph 1016.5mb 75f 71f
12:36 3
mph
1016.5mb 75f 71f
12:30 3
mph
1016.6mb 75f 71f
12:24 2 3 mph 1016.6mb 75f 71f
12:18 3
mph
1016.6mb 75f 71f
12:12 2 3 mph 1016.6mb 75f 71f
12:06 2 3 mph 1016.6mb 75f 71f
12:00 3
mph
1016.6mb 75f 72f
mar. 09/01 11:54 1 3 mph 1016.6mb 75f 71f
11:48 1 3 mph 1016.6mb 75f 72f
11:42 3 5 mph 1016.6mb 75f 72f
11:36 3
mph
1016.6mb 75f 72f
11:30 3 5 mph 1016.6mb 75f 72f
11:24 1 3 mph 1016.5mb 75f 71f
11:18 2 3 mph 1016.6mb 74f 72f
11:12 1 3 mph 1016.6mb 74f 72f
11:06 2 3 mph 1016.5mb 75f 72f
11:00 1 3 mph 1016.5mb 75f 72f
10:54 2 3 mph 1016.4mb 75f 72f
10:48 1 3 mph 1016.4mb 75f 72f
10:42 3 5 mph 1016.4mb 75f 72f
10:36 2 5 mph 1016.5mb 74f 72f
10:30 3 6 mph 1016.5mb 74f 72f
10:24 2 3 mph 1016.5mb 74f 72f
10:18 2 3 mph 1016.5mb 74f 72f
10:12 3 5 mph 1016.6mb 74f 72f
10:06 5 6 mph 1016.7mb 74f 73f
10:00 3 7 mph 1016.6mb 75f 73f
9:54 5 7 mph 1016.7mb 75f 73f
9:48 3 6 mph 1016.7mb 75f 73f
9:42 5 6 mph 1016.7mb 75f 73f
9:36 5 7 mph 1016.6mb 75f 73f
9:30 6 7 mph 1016.6mb 75f 73f
9:24 5 6 mph 1016.6mb 75f 73f
9:18 5 7 mph 1016.5mb 74f 73f
9:12 6 7 mph 1016.5mb 74f 73f
9:06 5 7 mph 1016.5mb 74f 73f
9:00 5 6 mph 1016.4mb 74f 73f
8:54 6 7 mph 1016.5mb 74f 73f
8:48 6 7 mph 1016.5mb 73f 73f
8:42 6 7 mph 1016.4mb 74f 73f
8:36 6 8 mph 1016.3mb 75f 73f
8:30 7 8 mph 1016.3mb 74f 73f
8:24 6 8 mph 1016.2mb 75f 73f
8:18 6
mph
1016.3mb 75f 73f
8:12 5 6 mph 1016.1mb 75f 73f
8:06 5 6 mph 1016mb 76f 73f
8:00 5 6 mph 1015.9mb 75f 74f
7:54 5 6 mph 1015.9mb 75f 73f
7:48 5 7 mph 1015.9mb 75f 73f
7:42 6 7 mph 1015.9mb 75f 73f
7:36 5 6 mph 1015.9mb 75f 74f
7:30 5 7 mph 1015.9mb 76f 74f
7:24 5 7 mph 1015.8mb 76f 74f
7:18 6 7 mph 1015.8mb 76f 74f
7:12 6 7 mph 1015.8mb 76f 74f
7:06 6
mph
1015.7mb 76f 74f
7:00 6 7 mph 1015.6mb 76f 74f
6:54 5 7 mph 1015.7mb 76f 74f
6:48 6 7 mph 1015.7mb 76f 74f
6:42 6 7 mph 1015.7mb 76f 74f
6:36 6 8 mph 1015.7mb 76f 74f
6:30 6 7 mph 1015.8mb 76f 75f
6:24 5 8 mph 1015.8mb 76f 75f
6:18 7 8 mph 1015.8mb 76f 75f
6:12 8 9 mph 1015.8mb 76f 75f
6:06 7 10 mph 1015.8mb 76f 75f
6:00 8 9 mph 1015.8mb 76f 75f
5:54 6 9 mph 1015.8mb 76f 76f
5:48 7 9 mph 1015.7mb 76f 76f
5:42 9 10 mph 1015.7mb 76f 75f
5:36 8 10 mph 1015.7mb 76f 76f
5:30 9 10 mph 1015.7mb 76f 76f
5:24 8 10 mph 1015.7mb 76f 76f
5:18 9 10 mph 1015.7mb 76f 76f
5:12 10 13 mph 1015.7mb 76f 77f
5:06 9 13 mph 1015.8mb 76f 77f
5:00 10 13 mph 1015.8mb 76f 77f
4:54 10 11 mph 1015.8mb 76f 77f
4:48 9 11 mph 1015.8mb 76f 77f
4:42 9 11 mph 1015.9mb 75f 77f
4:36 9 13 mph 1015.9mb 76f 77f
4:30 8 11 mph 1016mb 75f 78f
4:24 11 14 mph 1016mb 76f 77f
4:18 10 14 mph 1016mb 76f 78f
4:12 10 13 mph 1016mb 76f 78f
4:06 10 14 mph 1016mb 76f 78f
4:00 9 11 mph 1016mb 76f 78f
3:54 10 13 mph 1016mb 76f 78f
3:48 9 11 mph 1016mb 76f 78f
3:42 10 14 mph 1016mb 76f 78f
3:36 11 14 mph 1016mb 76f 78f
3:30 9 13 mph 1016mb 76f 79f
3:24 10 14 mph 1015.9mb 76f 78f
3:18 10 14 mph 1016mb 76f 78f
3:12 11 15 mph 1016mb 76f 79f
3:06 13 15 mph 1016mb 76f 79f
3:00 11 14 mph 1016mb 76f 78f
2:54 9 11 mph 1016.1mb 76f 78f
2:48 9 16 mph 1016.1mb 76f 77f
2:42 10 11 mph 1016.1mb 76f 77f
2:36 9 13 mph 1016.2mb 76f 78f
2:30 9 15 mph 1016.1mb 76f 79f
2:24 10 14 mph 1016.2mb 75f 79f
2:18 10 13 mph 1016.1mb 75f 79f
2:12 10 13 mph 1016.2mb 75f 78f
2:06 10 14 mph 1016.3mb 75f 78f
2:00 9 13 mph 1016.3mb 74f 78f
1:54 10 13 mph 1016.3mb 74f 78f
1:48 11 14 mph 1016.4mb 74f 77f
1:42 10 14 mph 1016.3mb 74f 77f
1:36 11 14 mph 1016.4mb 74f 76f
1:30 11 14 mph 1016.4mb 74f 77f
1:24 11 14 mph 1016.4mb 74f 77f
1:18 13 15 mph 1016.5mb 74f 77f
1:12 10 15 mph 1016.5mb 74f 78f
1:06 11 14 mph 1016.3mb 74f 80f
1:00 11 13 mph 1016.3mb 74f 79f
12:54 9 11 mph 1016.3mb 74f 79f
12:48 2 8 mph 1016.2mb 74f 84f
12:42 3 5 mph 1016.1mb 74f 83f
12:36 2 5 mph 1016.1mb 74f 84f
12:30 3 5 mph 1016.1mb 74f 83f
12:24 3 6 mph 1016.1mb 74f 82f
12:18 3 5 mph 1016mb 74f -
12:12  -  5 mph 1016mb 74f -
12:06 2 5 mph 1016mb 74f -
12:00 3 6 mph 1016.1mb 74f 83f
11:54 3 6 mph 1016.1mb 74f 83f
11:48 3 6 mph - 75f 82f
11:42 3 6 mph - 75f 82f
11:36 5 7 mph - 75f 81f
11:30 5 6 mph 1016.4mb 75f 81f
11:24 2 6 mph 1016.4mb 74f 80f
11:18 3 6 mph 1016.4mb 74f 80f
11:12 3 6 mph 1016.4mb 74f 80f
11:06  -  6 mph 1016.3mb 74f 79f
11:00 3 6 mph 1016.4mb 74f 78f
10:54 2 7 mph 1016.4mb 74f 80f
10:48 2 8 mph 1016.4mb 74f 80f
10:42 3 8 mph 1016.4mb 74f 79f
10:36 5 8 mph 1016.4mb 74f 79f
10:30 7 9 mph 1016.5mb 74f 78f
10:24 6 8 mph 1016.4mb 74f 78f
10:18 5 9 mph 1016.4mb 74f 78f
10:12 5 9 mph 1016.3mb 74f 78f
10:06 5 7 mph 1016.2mb 74f 77f
10:00 6 8 mph 1016.3mb 74f 77f
9:54 3 8 mph 1016.2mb 74f 77f
9:48 5 9 mph 1016.2mb 74f 77f
9:42 7 9 mph 1016.1mb 74f 76f
9:36 6 10 mph 1016.1mb 74f 76f
9:30 3 10 mph 1016mb 74f 76f
9:24 6 9 mph 1016mb 74f 75f
9:18 6 9 mph 1015.9mb 74f 75f
9:12 3 8 mph 1015.9mb 74f 75f
9:06 3 8 mph 1015.8mb 73f 75f
9:00 2 8 mph 1015.8mb 73f 74f
8:54 5 8 mph 1015.8mb 73f 74f
8:48 5 8 mph 1015.9mb 73f 73f
8:42 6 8 mph 1015.9mb 73f 73f
8:36 5 8 mph 1015.9mb 73f 73f
8:30 3 9 mph 1015.8mb 73f 73f
8:24 5 7 mph 1015.8mb 73f 72f
8:18 3 8 mph 1015.8mb 73f 72f
8:12 3 6 mph 1015.8mb 73f 72f
8:06 5 8 mph 1015.8mb 73f 72f
8:00 6 8 mph 1015.8mb 73f 71f
7:54 2 9 mph 1015.7mb 74f 71f
7:48 7 9 mph 1015.7mb 73f 71f
7:42 3 7 mph 1015.7mb 73f 71f
7:36 3 7 mph 1015.6mb 74f 71f
7:30 5 8 mph 1015.6mb 74f 70f
7:24 5 7 mph 1015.6mb 74f 70f
7:18 2 6 mph 1015.6mb 75f 70f
7:12 2 6 mph 1015.5mb 75f 70f
7:06 2 6 mph 1015.4mb 75f 70f
7:00 3 7 mph 1015.4mb 75f 70f
6:54 5 7 mph 1015.2mb 75f 70f
6:48 5 8 mph 1015.1mb 75f 69f
6:42 6 9 mph 1015.1mb 75f 69f
6:36 6 8 mph 1015.1mb 75f 69f
6:30 3 7 mph - - 69f
6:24 3 8 mph - - 69f
6:18 5 8 mph 1015mb 75f 70f
6:12 2 7 mph 1014.9mb 75f 70f
6:06 5 7 mph 1014.8mb 75f 70f
6:00 2 6 mph 1014.7mb 75f 70f
5:54 2 5 mph 1014.6mb 75f 70f
5:48  -  mph 1014.6mb 75f 70f
5:42  -  mph 1014.6mb 75f 70f
5:36  -  mph 1014.5mb 75f 70f
5:30 3 6 mph 1014.4mb 75f 71f
5:24 3 6 mph 1014.3mb 75f 71f
5:18 2 5 mph 1014.2mb 75f 71f
5:12 2 5 mph 1014.1mb 75f 71f
5:06 5 7 mph 1014mb 75f 71f
5:00 5 7 mph 1013.9mb 75f 71f
4:54 5 7 mph 1013.8mb 75f 71f
4:48 6 8 mph 1013.8mb 75f 71f
4:42 3 7 mph 1013.8mb 75f 72f
4:36 3 6 mph 1013.8mb 75f 72f
4:30 3 7 mph 1013.9mb 75f 71f
4:24 5 6 mph 1013.9mb 75f 72f
4:18 3 6 mph - 75f 72f
4:12 5 7 mph - 75f 73f
4:06 2 5 mph - 75f 73f
4:00 2 3 mph 1013.9mb 75f 73f
3:54 2 5 mph 1014mb 75f 73f
3:48 2 5 mph 1014mb 75f 73f
3:42 2 3 mph 1013.9mb 75f 73f
3:36 2 3 mph 1013.9mb 75f 73f
3:30 2 5 mph 1013.9mb 75f 73f
3:24 1 5 mph 1013.9mb 75f 73f
3:18 3 5 mph 1013.9mb 75f 73f
3:12 5 6 mph 1013.9mb 75f 73f
3:06 3 6 mph 1013.9mb 75f 74f
3:00 3 6 mph 1013.9mb 75f 74f
2:54 3 5 mph 1013.9mb 75f 74f
2:48 1 3 mph 1013.9mb 75f 74f
2:42  -  3 mph 1013.9mb 75f 74f
2:36 3 6 mph 1013.9mb 75f 74f
2:30 3 6 mph 1013.9mb 75f 75f
2:24 3 5 mph 1013.9mb 75f 75f
2:18 3 7 mph 1013.9mb 75f 75f
2:12 3 7 mph 1013.9mb 75f 75f
2:06 5 7 mph 1013.8mb 74f 75f
2:00 3 6 mph 1013.8mb 74f 74f
1:54  -  5 mph 1013.8mb 74f 74f
1:48 3 7 mph 1013.8mb 74f 75f
1:42 3 6 mph 1013.8mb 74f 75f
1:36 3 6 mph 1013.8mb 74f 75f
1:30 3 6 mph 1013.8mb 74f 75f
1:24 2 6 mph 1013.8mb 74f 74f
1:18 2 5 mph 1013.8mb 74f 74f
1:12 2 3 mph 1013.9mb 74f 74f
1:06 2 3 mph 1013.9mb 74f 74f
1:00 2 5 mph 1013.9mb 74f -
12:54 2 5 mph 1014mb 74f -
12:48 2 3 mph 1014mb 74f 74f
12:42 2 3 mph 1014mb 74f 74f
12:36 2
mph
1014mb 74f 75f
12:30 2
mph
1013.9mb 74f 75f
12:24 1 3 mph 1013.9mb 74f 75f
12:18 2 3 mph 1013.9mb 75f 75f
12:12 2 3 mph 1013.8mb 74f 75f
12:06 2 3 mph 1013.8mb 74f 75f
12:00 2 3 mph - 74f 75f
lun. 08/31 11:54 2 3 mph - 74f 76f
11:48 2 3 mph 1013.7mb 74f 76f
11:42 2 3 mph 1013.6mb 74f 76f
11:36 2 3 mph 1013.6mb 74f 76f
11:30 1 3 mph 1013.5mb 74f 76f
11:24 2 3 mph 1013.5mb 74f 77f
11:18 1 2 mph 1013.5mb 75f 77f
11:12  -  2 mph 1013.4mb 75f 77f
11:06  -  2 mph 1013.4mb 74f 77f
11:00  -  2 mph 1013.4mb 74f 77f
10:54 2 3 mph 1013.3mb 74f 77f
10:48 1 5 mph 1013.3mb 74f 78f
10:42 5 7 mph 1013.3mb 74f 78f
10:36 3 6 mph 1013.2mb 74f 78f
10:30 1 8 mph 1013.2mb 75f 79f
10:24 5 8 mph 1013.1mb 75f 79f
10:18 3 6 mph - 75f 79f
10:12 5 6 mph - 75f 79f
10:06 3 6 mph - 75f 80f
10:00 3 8 mph 1012.9mb 75f 80f
9:54 6 8 mph 1012.9mb 75f 80f
9:48 6 9 mph 1012.9mb 75f 80f
9:42 6 9 mph 1012.9mb 75f 80f
9:36 5 7 mph 1012.9mb 75f 80f
9:30 3 7 mph 1012.9mb 75f 80f
9:24 3 7 mph 1012.9mb 75f 80f
9:18 5 8 mph 1012.9mb 75f -
9:12 5 6 mph 1012.9mb 75f -
9:06 3 6 mph 1012.9mb 75f -
9:00 6 9 mph 1012.9mb 75f 80f
8:54 6 8 mph 1012.8mb 74f 80f
8:48 3 7 mph 1012.8mb 74f 81f
8:42 5 7 mph 1012.8mb 75f 81f
8:36 5 8 mph 1012.7mb 75f 81f
8:30 6 10 mph 1012.7mb 74f 81f
8:24 6 8 mph 1012.7mb 75f 81f
8:18 6 8 mph 1012.6mb 74f 82f
8:12 6 8 mph 1012.6mb 74f 82f
8:06 6 10 mph 1012.5mb 74f 82f
8:00 5 9 mph 1012.5mb 73f 82f
7:54 6 8 mph 1012.4mb 73f 82f
7:48 5 8 mph 1012.4mb 74f 83f
7:42 6 7 mph 1012.3mb 74f 83f
7:36 5 7 mph 1012.3mb 74f 84f
7:00 6 9 mph 1012.1mb 75f 85f
6:54 5 9 mph 1012.1mb 75f 85f
6:48 2 6 mph 1012.1mb 75f 85f
6:42 5 9 mph 1012.1mb 75f 85f
6:36 7 10 mph 1012.2mb 75f 85f
6:30 5 9 mph 1012.2mb 75f 85f
6:24 6 10 mph 1012.2mb 75f 85f
6:18 6 10 mph 1012.2mb 76f 85f
6:12 8 11 mph 1012.2mb 76f 85f
6:06 6 10 mph 1012.2mb 76f 86f
6:00 6 10 mph 1012.2mb 76f 86f
5:54 8 14 mph 1012.1mb 76f 86f
10:48 3 7 mph 1014.7mb 73f 82f
9:54 5 9 mph 1014.7mb 73f 79f
9:48 6 8 mph 1014.7mb 73f 79f
8:54 2 9 mph 1014.8mb 73f 77f
8:48 6 9 mph 1014.8mb 73f 77f
7:54 2 6 mph 1014.8mb 73f 74f
7:48 2 6 mph 1014.8mb 73f 74f
6:54 1 2 mph 1014.7mb 73f 73f
6:48 1 2 mph 1014.6mb 72f 73f
5:54  -  2 mph 1014.1mb 74f 73f
5:48 2 5 mph 1014.1mb 74f 73f